Time;durP1;ratioP1;P1;durP2;ratioP2;P2;SDS_P1;SDS_P2;PMS_P1;PMS_P2;Temp;Humidity;BMP_temperature;BMP_pressure;BME280_temperature;BME280_humidity;BME280_pressure;Samples;Min_cycle;Max_cycle;Signal;HPM_P1;HPM_P2
2021/04/08 00:03:06;;;;;;;0.00;0.00;;;3.10;99.90;;;;;;10487444;28;20045;-48
2021/04/08 00:08:26;;;;;;;2.53;0.13;;;3.10;99.90;;;;;;10469144;28;20443;-48
2021/04/08 00:13:48;;;;;;;0.00;0.00;;;3.20;99.90;;;;;;10486677;28;20123;-47
2021/04/08 00:19:09;;;;;;;1.55;0.30;;;3.20;99.90;;;;;;10466937;28;20052;-47
2021/04/08 00:24:30;;;;;;;0.10;0.10;;;3.30;99.90;;;;;;10477937;28;20036;-47
2021/04/08 00:29:51;;;;;;;0.85;0.20;;;3.30;99.90;;;;;;10481156;28;20040;-47
2021/04/08 00:35:12;;;;;;;0.10;0.00;;;3.20;99.90;;;;;;10459057;28;20052;-48
2021/04/08 00:40:34;;;;;;;0.75;0.25;;;3.10;99.90;;;;;;10476953;28;20017;-47
2021/04/08 00:45:55;;;;;;;0.00;0.00;;;3.10;99.90;;;;;;10479453;28;20112;-47
2021/04/08 00:51:17;;;;;;;0.52;0.35;;;3.00;99.90;;;;;;10481651;28;20032;-47
2021/04/08 00:56:38;;;;;;;0.60;0.30;;;3.10;99.90;;;;;;10478985;28;20139;-48
2021/04/08 01:01:59;;;;;;;0.38;0.25;;;3.10;99.90;;;;;;10480059;28;20500;-48
2021/04/08 01:07:20;;;;;;;0.52;0.10;;;3.10;99.90;;;;;;10477934;28;20071;-48
2021/04/08 01:12:41;;;;;;;2.17;0.63;;;3.10;99.90;;;;;;10482446;28;20106;-47
2021/04/08 01:18:24;;;;;;;9.15;0.63;;;3.20;99.90;;;;;;10461720;28;20052;-48
2021/04/08 01:24:10;;;;;;;4.80;0.20;;;3.20;99.90;;;;;;10482724;28;20120;-47
2021/04/08 01:29:49;;;;;;;3.03;0.30;;;3.10;99.90;;;;;;10481072;28;20032;-48
2021/04/08 01:35:12;;;;;;;0.45;0.15;;;3.10;99.90;;;;;;10481070;28;20036;-49
2021/04/08 01:40:34;;;;;;;3.10;0.30;;;3.10;99.90;;;;;;10484505;28;20041;-48
2021/04/08 01:45:58;;;;;;;0.40;0.17;;;3.10;99.90;;;;;;10485578;28;20032;-48
2021/04/08 01:51:20;;;;;;;0.10;0.00;;;3.00;99.90;;;;;;10480137;28;20583;-48
2021/04/08 01:56:43;;;;;;;2.17;0.28;;;3.00;99.90;;;;;;10485173;28;20036;-48
2021/04/08 02:02:05;;;;;;;0.30;0.20;;;3.00;99.90;;;;;;10501951;28;20389;-47
2021/04/08 02:07:26;;;;;;;4.82;0.40;;;3.10;99.90;;;;;;10528368;28;20031;-47
2021/04/08 02:12:50;;;;;;;0.03;0.00;;;3.10;99.90;;;;;;10524656;28;20072;-47
2021/04/08 02:18:16;;;;;;;1.42;0.10;;;3.10;99.90;;;;;;10524338;28;20040;-47
2021/04/08 02:23:40;;;;;;;12.85;2.03;;;3.20;99.90;;;;;;10525315;28;20035;-47
2021/04/08 02:29:03;;;;;;;1.60;0.43;;;3.10;99.90;;;;;;10508720;28;20093;-48
2021/04/08 02:34:24;;;;;;;0.63;0.20;;;3.20;99.90;;;;;;10532131;28;20046;-48
2021/04/08 02:39:45;;;;;;;0.03;0.00;;;3.20;99.90;;;;;;10525275;28;20051;-48
2021/04/08 02:45:08;;;;;;;0.70;0.20;;;3.20;99.90;;;;;;10520905;28;20032;-48
2021/04/08 02:50:28;;;;;;;0.30;0.10;;;3.20;99.90;;;;;;10519535;28;20488;-48
2021/04/08 02:56:11;;;;;;;0.77;0.10;;;3.10;99.90;;;;;;10525550;28;20039;-48
2021/04/08 03:01:35;;;;;;;1.00;0.10;;;3.10;99.90;;;;;;10509340;28;20452;-48
2021/04/08 03:06:57;;;;;;;0.32;0.10;;;3.10;99.90;;;;;;10482443;28;20043;-48
2021/04/08 03:12:19;;;;;;;0.10;0.00;;;3.10;99.90;;;;;;10493765;28;20028;-48
2021/04/08 03:17:44;;;;;;;0.10;0.10;;;3.10;99.90;;;;;;10485899;28;20048;-48
2021/04/08 03:23:08;;;;;;;0.10;0.03;;;3.10;99.90;;;;;;10491137;28;20082;-47
2021/04/08 03:28:31;;;;;;;0.10;0.00;;;3.20;99.90;;;;;;10491919;28;20419;-47
2021/04/08 03:33:52;;;;;;;0.68;0.10;;;3.30;99.90;;;;;;10491688;28;23044;-47
2021/04/08 03:39:14;;;;;;;0.68;0.32;;;3.20;99.90;;;;;;10491161;28;20426;-47
2021/04/08 03:44:35;;;;;;;0.03;0.00;;;3.20;99.90;;;;;;10489575;28;20040;-47
2021/04/08 03:49:58;;;;;;;0.63;0.30;;;3.10;99.90;;;;;;10489098;28;20047;-48
2021/04/08 03:55:21;;;;;;;0.40;0.20;;;3.10;99.90;;;;;;10483921;28;20071;-48
2021/04/08 04:00:43;;;;;;;2.35;0.20;;;3.10;99.90;;;;;;10490136;28;20610;-47
2021/04/08 04:06:08;;;;;;;0.80;0.30;;;3.00;99.90;;;;;;10485615;28;20094;-48
2021/04/08 04:11:31;;;;;;;1.75;0.25;;;2.90;99.90;;;;;;10480720;28;20033;-47
2021/04/08 04:16:57;;;;;;;0.50;0.10;;;2.90;99.90;;;;;;10482917;28;20454;-47
2021/04/08 04:22:18;;;;;;;0.10;0.00;;;2.80;99.90;;;;;;10483124;28;20498;-47
2021/04/08 04:27:40;;;;;;;0.50;0.32;;;2.70;99.90;;;;;;10482547;28;20032;-48
2021/04/08 04:33:01;;;;;;;0.80;0.25;;;2.60;99.90;;;;;;10477877;28;20141;-48
2021/04/08 04:38:22;;;;;;;0.75;0.35;;;2.50;99.90;;;;;;10483120;28;20047;-47
2021/04/08 04:43:43;;;;;;;1.65;0.25;;;2.40;99.90;;;;;;10485804;28;20039;-47
2021/04/08 04:49:04;;;;;;;0.45;0.20;;;2.40;99.90;;;;;;10481227;28;20044;-47
2021/04/08 04:54:25;;;;;;;1.13;0.20;;;2.30;99.90;;;;;;10484095;28;20041;-47
2021/04/08 04:59:46;;;;;;;0.52;0.28;;;2.30;99.90;;;;;;10485490;28;20385;-47
2021/04/08 05:05:08;;;;;;;0.77;0.22;;;2.30;99.90;;;;;;10482135;28;20055;-47
2021/04/08 05:10:29;;;;;;;0.68;0.30;;;2.20;99.90;;;;;;10484968;28;20441;-48
2021/04/08 05:15:49;;;;;;;2.03;0.55;;;2.20;99.90;;;;;;10479475;28;20480;-47
2021/04/08 05:21:11;;;;;;;0.90;0.75;;;2.30;99.90;;;;;;10481013;28;20048;-47
2021/04/08 05:26:32;;;;;;;1.10;0.25;;;2.30;99.90;;;;;;10482886;28;20080;-47
2021/04/08 05:31:53;;;;;;;1.30;0.30;;;2.40;99.90;;;;;;10483065;28;20467;-47
2021/04/08 05:37:14;;;;;;;3.45;0.50;;;2.50;99.90;;;;;;10488021;28;20078;-48
2021/04/08 05:42:35;;;;;;;1.35;0.28;;;2.60;99.90;;;;;;10469294;28;20036;-47
2021/04/08 05:47:55;;;;;;;1.15;0.20;;;2.80;99.90;;;;;;10476484;28;20037;-48
2021/04/08 05:53:16;;;;;;;2.67;0.50;;;3.00;99.90;;;;;;10478814;28;20032;-47
2021/04/08 05:58:37;;;;;;;2.50;0.70;;;3.00;99.90;;;;;;10478593;28;20135;-47
2021/04/08 06:03:58;;;;;;;0.88;0.38;;;2.90;99.90;;;;;;10508499;28;20039;-47
2021/04/08 06:09:19;;;;;;;0.70;0.20;;;3.00;99.90;;;;;;10525093;28;20028;-47
2021/04/08 06:14:41;;;;;;;2.22;0.30;;;3.00;99.90;;;;;;10526439;28;20039;-48
2021/04/08 06:20:04;;;;;;;3.50;1.17;;;3.00;99.90;;;;;;10523549;28;20035;-47
2021/04/08 06:25:25;;;;;;;1.60;0.50;;;3.20;99.90;;;;;;10522438;28;20035;-47
2021/04/08 06:30:46;;;;;;;0.85;0.40;;;3.30;99.90;;;;;;10520825;28;20040;-47
2021/04/08 06:36:09;;;;;;;1.27;0.88;;;3.30;99.90;;;;;;10509783;28;20150;-47
2021/04/08 06:41:31;;;;;;;1.08;0.55;;;3.30;99.90;;;;;;10522375;28;20052;-47
2021/04/08 06:46:57;;;;;;;3.35;0.60;;;3.40;99.90;;;;;;10527476;28;20059;-47
2021/04/08 06:52:19;;;;;;;2.03;0.65;;;3.40;99.90;;;;;;10533186;27;20336;-48
2021/04/08 06:57:42;;;;;;;1.75;0.50;;;3.60;99.90;;;;;;10527030;28;20051;-47
2021/04/08 07:03:04;;;;;;;1.65;0.95;;;3.80;99.90;;;;;;10528935;28;20056;-47
2021/04/08 07:08:28;;;;;;;2.63;0.60;;;4.10;99.90;;;;;;10491637;28;20109;-47
2021/04/08 07:13:49;;;;;;;1.73;0.50;;;4.40;99.90;;;;;;10502535;28;20057;-47
2021/04/08 07:19:10;;;;;;;2.22;0.70;;;4.70;99.90;;;;;;10509999;28;20115;-47
2021/04/08 07:24:44;;;;;;;2.55;0.80;;;5.20;99.90;;;;;;10491006;28;20758;-48
2021/04/08 07:30:05;;;;;;;1.55;0.60;;;5.50;99.90;;;;;;10511443;28;20051;-48
2021/04/08 07:35:40;;;;;;;1.83;0.85;;;5.60;99.90;;;;;;10515833;28;20040;-48
2021/04/08 07:41:03;;;;;;;2.20;0.75;;;5.60;99.90;;;;;;10505528;28;20039;-48
2021/04/08 07:46:41;;;;;;;1.33;0.65;;;5.60;99.90;;;;;;10503382;28;20042;-48
2021/04/08 07:52:17;;;;;;;2.03;0.75;;;5.60;99.90;;;;;;10506138;28;20040;-48
2021/04/08 07:58:01;;;;;;;2.88;0.70;;;5.60;99.90;;;;;;10511511;27;20040;-48
2021/04/08 08:03:26;;;;;;;5.22;0.50;;;5.70;99.90;;;;;;10469245;28;20067;-48
2021/04/08 08:08:49;;;;;;;2.08;0.50;;;5.80;99.90;;;;;;10457187;28;20157;-48
2021/04/08 08:14:10;;;;;;;2.60;1.60;;;5.70;99.90;;;;;;10469517;28;21195;-48
2021/04/08 08:19:32;;;;;;;1.13;0.80;;;5.70;99.90;;;;;;10464842;28;20325;-48
2021/04/08 08:24:55;;;;;;;2.28;0.80;;;5.80;99.90;;;;;;10466640;28;20036;-47
2021/04/08 08:30:19;;;;;;;2.20;0.90;;;5.90;99.90;;;;;;10472441;28;20037;-48
2021/04/08 08:35:40;;;;;;;6.68;0.70;;;6.10;99.90;;;;;;10476068;28;20032;-48
2021/04/08 08:41:01;;;;;;;2.40;1.00;;;6.20;99.90;;;;;;10471337;28;21911;-48
2021/04/08 08:46:26;;;;;;;1.38;0.57;;;6.30;99.90;;;;;;10470224;28;20775;-48
2021/04/08 08:51:50;;;;;;;2.53;0.90;;;6.30;99.90;;;;;;10472818;28;20028;-48
2021/04/08 08:57:11;;;;;;;2.80;1.23;;;6.20;99.90;;;;;;10472386;28;20481;-48
2021/04/08 09:02:34;;;;;;;3.50;1.77;;;6.20;99.90;;;;;;10450270;28;20159;-49
2021/04/08 09:08:05;;;;;;;1.77;0.63;;;6.30;99.90;;;;;;10463306;28;20052;-48
2021/04/08 09:13:26;;;;;;;3.63;0.93;;;6.40;99.90;;;;;;10460528;28;20051;-48
2021/04/08 09:19:01;;;;;;;3.38;0.90;;;6.60;99.90;;;;;;10463882;28;20040;-48
2021/04/08 09:24:31;;;;;;;2.28;0.90;;;6.50;99.90;;;;;;10461555;28;20040;-48
2021/04/08 09:29:58;;;;;;;3.00;1.30;;;6.60;99.90;;;;;;10468739;28;20180;-48
2021/04/08 09:35:28;;;;;;;2.67;1.20;;;6.50;99.90;;;;;;10458983;28;20409;-48
2021/04/08 09:40:51;;;;;;;2.97;1.10;;;6.60;99.90;;;;;;10461985;28;22680;-48
2021/04/08 09:46:13;;;;;;;2.92;1.13;;;6.70;99.90;;;;;;10452478;28;20079;-47
2021/04/08 09:51:41;;;;;;;2.30;1.05;;;6.90;99.90;;;;;;10451727;28;20103;-47
2021/04/08 09:57:02;;;;;;;2.72;1.00;;;7.00;99.90;;;;;;10458231;28;20046;-47
2021/04/08 10:02:24;;;;;;;2.65;0.85;;;7.10;99.90;;;;;;10458836;28;20087;-47
2021/04/08 10:07:56;;;;;;;2.33;1.02;;;7.00;99.90;;;;;;10458908;28;20681;-47
2021/04/08 10:13:29;;;;;;;2.83;1.23;;;7.00;99.90;;;;;;10465219;28;20412;-47
2021/04/08 10:19:01;;;;;;;4.40;1.35;;;7.20;99.90;;;;;;10469966;28;20480;-47
2021/04/08 10:24:22;;;;;;;2.60;1.20;;;7.10;99.90;;;;;;10467578;28;20091;-47
2021/04/08 10:29:44;;;;;;;4.55;1.67;;;7.10;99.90;;;;;;10470323;28;20033;-47
2021/04/08 10:35:22;;;;;;;2.88;1.27;;;7.10;99.90;;;;;;10470070;28;20070;-47
2021/04/08 10:40:51;;;;;;;4.05;2.13;;;7.20;99.90;;;;;;10471797;28;20049;-47
2021/04/08 10:46:19;;;;;;;4.10;1.57;;;7.30;99.90;;;;;;10463552;28;20445;-47
2021/04/08 10:51:40;;;;;;;3.35;1.35;;;7.90;99.90;;;;;;10469661;28;20496;-47
2021/04/08 10:57:02;;;;;;;4.45;1.50;;;8.30;99.90;;;;;;10474448;28;20056;-47
2021/04/08 11:02:32;;;;;;;3.65;1.55;;;8.60;99.90;;;;;;10465384;28;20556;-47
2021/04/08 11:07:57;;;;;;;8.65;2.08;;;8.40;99.90;;;;;;10469757;28;20160;-47
2021/04/08 11:13:18;;;;;;;3.50;1.73;;;7.90;99.90;;;;;;10472261;28;20082;-47
2021/04/08 11:18:42;;;;;;;4.50;1.52;;;7.70;99.90;;;;;;10460350;28;20178;-47
2021/04/08 11:24:03;;;;;;;5.30;1.90;;;7.90;99.90;;;;;;10462751;28;20080;-47
2021/04/08 11:29:26;;;;;;;5.53;1.70;;;8.00;99.90;;;;;;10454988;28;20162;-47
2021/04/08 11:34:50;;;;;;;4.10;1.65;;;8.10;99.90;;;;;;10446583;28;20879;-47
2021/04/08 11:40:11;;;;;;;2.70;1.45;;;7.80;99.90;;;;;;10466759;28;20039;-47
2021/04/08 11:45:36;;;;;;;7.90;2.60;;;7.70;99.90;;;;;;10459049;28;20166;-47
2021/04/08 11:51:05;;;;;;;3.72;1.50;;;7.80;99.90;;;;;;10465720;28;20122;-47
2021/04/08 11:56:32;;;;;;;3.78;1.42;;;7.90;99.90;;;;;;10468754;28;20071;-47
2021/04/08 12:01:56;;;;;;;3.47;1.45;;;8.30;99.90;;;;;;10468653;28;20116;-47
2021/04/08 12:07:19;;;;;;;2.70;1.10;;;8.50;99.90;;;;;;10506698;28;20400;-47
2021/04/08 12:12:40;;;;;;;4.32;1.83;;;9.30;99.90;;;;;;10508746;28;20585;-47
2021/04/08 12:18:02;;;;;;;3.92;1.60;;;9.50;99.90;;;;;;10504162;28;20302;-47
2021/04/08 12:23:35;;;;;;;6.28;1.90;;;10.10;99.90;;;;;;10509501;28;20042;-47
2021/04/08 12:28:56;;;;;;;4.35;1.60;;;11.40;99.70;;;;;;10506483;28;20039;-47
2021/04/08 12:53:10;;;;;;;3.25;1.25;;;11.70;96.80;;;;;;10496372;28;20036;-47
2021/04/08 12:58:31;;;;;;;5.22;2.20;;;10.70;98.50;;;;;;10490837;28;21459;-47
2021/04/08 13:03:52;;;;;;;3.67;1.83;;;10.60;99.90;;;;;;10490686;28;20048;-47
2021/04/08 13:09:13;;;;;;;5.60;1.10;;;10.80;99.00;;;;;;10511834;28;20587;-47
2021/04/08 13:14:34;;;;;;;5.57;1.58;;;10.70;99.40;;;;;;10508353;28;20047;-47
2021/04/08 13:19:56;;;;;;;3.95;1.85;;;10.50;99.90;;;;;;10512699;28;20185;-46
2021/04/08 13:25:18;;;;;;;6.50;1.80;;;10.70;98.70;;;;;;10503672;28;20044;-47
2021/04/08 13:30:40;;;;;;;3.53;1.52;;;11.20;98.60;;;;;;10515784;28;20072;-47
2021/04/08 13:36:00;;;;;;;3.33;1.58;;;11.60;95.70;;;;;;10514281;28;20036;-46
2021/04/08 13:41:21;;;;;;;5.50;2.13;;;10.90;96.50;;;;;;10511219;28;20028;-46
2021/04/08 13:46:43;;;;;;;4.85;2.30;;;9.90;99.20;;;;;;10502679;28;20043;-46
2021/04/08 13:52:04;;;;;;;3.70;1.60;;;9.80;99.90;;;;;;10512185;28;20055;-46
2021/04/08 13:57:25;;;;;;;3.50;1.92;;;10.40;99.10;;;;;;10503258;28;20346;-46
2021/04/08 14:02:47;;;;;;;2.17;1.30;;;10.40;97.70;;;;;;10498996;28;20139;-47
2021/04/08 14:08:08;;;;;;;2.78;1.38;;;10.00;98.70;;;;;;10500355;28;20478;-47
2021/04/08 14:13:29;;;;;;;4.45;2.30;;;9.70;99.90;;;;;;10498748;28;20050;-47
2021/04/08 14:18:50;;;;;;;3.15;1.38;;;9.40;99.90;;;;;;10503269;28;20040;-46
2021/04/08 14:24:11;;;;;;;3.47;1.38;;;9.60;99.90;;;;;;10490586;28;20043;-47
2021/04/08 14:29:32;;;;;;;3.80;1.75;;;9.60;99.90;;;;;;10501177;28;21583;-46
2021/04/08 14:34:53;;;;;;;3.30;1.67;;;9.50;99.90;;;;;;10499562;28;20390;-46
2021/04/08 14:40:14;;;;;;;4.35;1.38;;;9.70;99.90;;;;;;10503088;28;20484;-46
2021/04/08 14:45:36;;;;;;;2.58;0.98;;;10.30;98.40;;;;;;10504774;28;20065;-46
2021/04/08 14:50:57;;;;;;;3.50;1.13;;;10.30;98.30;;;;;;10503150;28;20036;-46
2021/04/08 14:56:18;;;;;;;5.55;1.60;;;10.00;99.90;;;;;;10500165;28;20082;-46
2021/04/08 15:01:39;;;;;;;2.40;1.02;;;10.20;98.90;;;;;;10506373;28;20032;-46
2021/04/08 15:07:00;;;;;;;4.45;1.27;;;10.20;99.90;;;;;;10505288;27;20059;-46
2021/04/08 15:12:21;;;;;;;3.08;1.38;;;10.00;99.90;;;;;;10491838;28;20159;-46
2021/04/08 15:17:44;;;;;;;2.50;1.02;;;9.80;99.40;;;;;;10510002;28;20048;-46
2021/04/08 15:23:05;;;;;;;3.08;0.98;;;10.00;99.40;;;;;;10486584;27;20396;-46
2021/04/08 15:28:26;;;;;;;4.38;1.25;;;9.70;99.90;;;;;;10439646;28;20160;-46
2021/04/08 15:33:47;;;;;;;2.53;1.08;;;9.80;99.90;;;;;;10453948;28;20441;-46
2021/04/08 15:39:09;;;;;;;3.83;1.75;;;9.90;99.10;;;;;;10470655;28;20040;-46
2021/04/08 15:44:29;;;;;;;4.07;1.20;;;9.50;99.60;;;;;;10458654;28;20048;-46
2021/04/08 15:49:51;;;;;;;2.90;1.45;;;9.50;99.90;;;;;;10467238;28;20035;-46
2021/04/08 15:55:16;;;;;;;3.90;1.25;;;9.60;99.90;;;;;;10463082;28;20229;-46
2021/04/08 16:00:37;;;;;;;4.20;2.00;;;9.60;99.90;;;;;;10460451;28;20086;-45
2021/04/08 16:05:58;;;;;;;4.50;1.83;;;9.50;99.90;;;;;;10462061;28;20503;-45
2021/04/08 16:11:19;;;;;;;3.67;1.67;;;9.40;99.90;;;;;;10460752;28;20451;-46
2021/04/08 16:16:39;;;;;;;6.18;2.53;;;9.40;99.90;;;;;;10454636;28;20063;-46
2021/04/08 16:22:00;;;;;;;2.90;1.50;;;9.50;99.90;;;;;;10467654;28;20043;-46
2021/04/08 16:27:22;;;;;;;5.57;2.25;;;9.50;99.90;;;;;;10453592;28;20040;-46
2021/04/08 16:32:42;;;;;;;6.13;2.03;;;9.40;99.90;;;;;;10452912;28;20060;-46
2021/04/08 16:38:03;;;;;;;4.22;2.17;;;9.20;99.90;;;;;;10460403;28;20067;-46
2021/04/08 16:43:25;;;;;;;10.35;2.40;;;9.30;99.90;;;;;;10468114;28;20040;-46
2021/04/08 16:48:46;;;;;;;5.28;2.05;;;9.30;99.90;;;;;;10455055;28;20405;-46
2021/04/08 16:54:07;;;;;;;6.10;2.95;;;9.40;99.90;;;;;;10458142;28;20393;-46
2021/04/08 16:59:28;;;;;;;4.55;2.28;;;9.50;99.90;;;;;;10461492;28;20459;-46
2021/04/08 17:04:49;;;;;;;4.32;1.55;;;9.40;99.90;;;;;;10462336;28;20052;-46
2021/04/08 17:10:11;;;;;;;4.60;2.17;;;9.20;99.90;;;;;;10456869;28;20395;-46
2021/04/08 17:15:33;;;;;;;5.55;1.83;;;9.30;99.90;;;;;;10458010;28;20109;-46
2021/04/08 17:20:54;;;;;;;5.57;1.70;;;9.20;99.90;;;;;;10460196;28;20052;-46
2021/04/08 17:26:15;;;;;;;4.85;1.88;;;8.90;99.90;;;;;;10452691;28;20563;-46
2021/04/08 17:31:36;;;;;;;3.95;2.13;;;9.00;99.90;;;;;;10457091;28;20041;-46
2021/04/08 17:36:57;;;;;;;4.38;1.63;;;9.00;99.90;;;;;;10452658;28;20668;-46
2021/04/08 17:42:18;;;;;;;3.70;1.38;;;8.70;99.90;;;;;;10437802;28;20040;-46
2021/04/08 17:47:40;;;;;;;5.80;1.85;;;8.70;99.90;;;;;;10460959;28;20752;-46
2021/04/08 17:53:01;;;;;;;4.18;1.85;;;8.70;99.90;;;;;;10460404;28;20525;-46
2021/04/08 17:58:22;;;;;;;5.32;2.00;;;8.60;99.90;;;;;;10459980;28;20496;-46
2021/04/08 18:03:43;;;;;;;5.53;2.17;;;8.50;99.90;;;;;;10465459;28;20048;-46
2021/04/08 18:09:04;;;;;;;4.35;1.98;;;8.30;99.90;;;;;;10461734;28;20132;-46
2021/04/08 18:14:25;;;;;;;4.80;2.35;;;8.30;99.90;;;;;;10447677;28;20051;-46
2021/04/08 18:19:46;;;;;;;7.93;1.95;;;8.20;99.90;;;;;;10462097;28;20063;-46
2021/04/08 18:25:08;;;;;;;3.72;1.65;;;8.20;99.90;;;;;;10445059;28;20040;-46
2021/04/08 18:30:30;;;;;;;4.53;1.83;;;8.10;99.90;;;;;;10453342;28;20086;-46
2021/04/08 18:35:53;;;;;;;6.43;2.00;;;7.90;99.90;;;;;;10446746;28;20527;-46
2021/04/08 18:41:14;;;;;;;3.55;1.88;;;7.80;99.90;;;;;;10465285;28;20530;-46
2021/04/08 18:46:35;;;;;;;4.25;1.83;;;7.80;99.90;;;;;;10462111;28;20037;-46
2021/04/08 18:51:56;;;;;;;5.63;2.40;;;7.70;99.90;;;;;;10464848;28;20040;-46
2021/04/08 18:57:24;;;;;;;4.00;2.20;;;7.70;99.90;;;;;;10460180;28;20109;-46
2021/04/08 19:02:47;;;;;;;4.00;1.98;;;7.60;99.90;;;;;;10467190;28;20155;-46
2021/04/08 19:08:08;;;;;;;3.42;1.50;;;7.50;99.90;;;;;;10467801;28;20032;-46
2021/04/08 19:13:29;;;;;;;4.28;2.20;;;7.40;99.90;;;;;;10468271;28;20033;-46
2021/04/08 19:18:51;;;;;;;3.13;1.40;;;7.30;99.90;;;;;;10471387;28;20078;-46
2021/04/08 19:24:12;;;;;;;4.10;2.03;;;7.20;99.90;;;;;;10467044;28;20088;-46
2021/04/08 19:29:33;;;;;;;3.67;1.85;;;7.00;99.90;;;;;;10462940;28;20094;-46
2021/04/08 19:34:54;;;;;;;4.60;1.40;;;7.10;99.90;;;;;;10465224;28;20048;-46
2021/04/08 19:40:16;;;;;;;3.95;2.05;;;7.00;99.90;;;;;;10458825;28;20044;-46
2021/04/08 19:45:37;;;;;;;2.50;0.80;;;6.90;99.90;;;;;;10463755;28;20028;-46
2021/04/08 19:50:58;;;;;;;3.92;0.90;;;7.00;99.90;;;;;;10468954;28;20089;-46
2021/04/08 19:56:19;;;;;;;4.07;1.52;;;6.90;99.90;;;;;;10467263;28;20512;-46
2021/04/08 20:01:40;;;;;;;2.97;1.00;;;6.70;99.90;;;;;;10462100;28;20072;-46
2021/04/08 20:07:01;;;;;;;5.50;2.00;;;6.70;99.90;;;;;;10456036;28;21124;-46
2021/04/08 20:12:22;;;;;;;12.93;2.72;;;6.60;99.90;;;;;;10466155;28;20025;-46
2021/04/08 20:17:44;;;;;;;4.80;1.77;;;6.50;99.90;;;;;;10466288;28;20127;-46
2021/04/08 20:23:05;;;;;;;6.20;1.38;;;6.40;99.90;;;;;;10469251;28;20294;-46
2021/04/08 20:28:26;;;;;;;3.00;1.42;;;6.50;99.90;;;;;;10467749;28;20109;-46
2021/04/08 20:33:47;;;;;;;4.28;1.52;;;6.40;99.90;;;;;;10457263;28;20035;-46
2021/04/08 20:39:08;;;;;;;3.00;1.20;;;6.40;99.90;;;;;;10463838;28;20043;-46
2021/04/08 20:44:30;;;;;;;6.57;1.90;;;6.40;99.90;;;;;;10462547;28;20284;-46
2021/04/08 20:49:51;;;;;;;5.47;1.42;;;6.30;99.90;;;;;;10475662;28;20301;-46
2021/04/08 20:55:12;;;;;;;4.93;2.13;;;6.30;99.90;;;;;;10483923;28;20036;-46
2021/04/08 21:00:33;;;;;;;4.70;1.40;;;6.30;99.90;;;;;;10484945;28;20446;-46
2021/04/08 21:05:55;;;;;;;6.15;1.48;;;6.40;99.90;;;;;;10477963;28;20045;-46
2021/04/08 21:11:16;;;;;;;4.13;1.60;;;6.20;99.90;;;;;;10484304;28;20101;-46
2021/04/08 21:16:37;;;;;;;6.22;1.52;;;6.20;99.90;;;;;;10479735;28;20067;-46
2021/04/08 21:21:58;;;;;;;3.58;1.52;;;6.20;99.90;;;;;;10474513;28;20454;-46
2021/04/08 21:27:19;;;;;;;8.57;2.50;;;6.20;99.90;;;;;;10484164;28;20713;-46
2021/04/08 21:32:41;;;;;;;3.80;1.30;;;6.20;99.90;;;;;;10471489;28;20029;-46
2021/04/08 21:38:02;;;;;;;4.07;1.50;;;6.10;99.90;;;;;;10480432;28;20048;-46
2021/04/08 21:43:26;;;;;;;4.85;1.35;;;6.00;99.90;;;;;;10482928;28;20135;-46
2021/04/08 21:48:47;;;;;;;4.15;1.58;;;6.00;99.90;;;;;;10478141;28;20573;-46
2021/04/08 21:54:09;;;;;;;4.25;1.40;;;5.90;99.90;;;;;;10484124;28;20051;-46
2021/04/08 21:59:30;;;;;;;8.10;1.77;;;5.90;99.90;;;;;;10476372;28;20056;-46
2021/04/08 22:04:51;;;;;;;4.20;1.35;;;5.90;99.90;;;;;;10470938;28;20044;-46
2021/04/08 22:10:14;;;;;;;5.97;2.10;;;5.90;99.90;;;;;;10475470;28;20040;-46
2021/04/08 22:15:36;;;;;;;7.20;2.53;;;5.80;99.90;;;;;;10473952;28;20044;-46
2021/04/08 22:20:56;;;;;;;6.43;2.17;;;5.70;99.90;;;;;;10475745;28;20094;-46
2021/04/08 22:26:19;;;;;;;5.20;2.28;;;5.70;99.90;;;;;;10474571;28;20039;-46
2021/04/08 22:31:40;;;;;;;8.93;1.80;;;5.70;99.90;;;;;;10476150;28;20032;-46
2021/04/08 22:37:01;;;;;;;4.85;1.77;;;5.60;99.90;;;;;;10479118;28;20123;-46
2021/04/08 22:42:22;;;;;;;3.80;1.67;;;5.60;99.90;;;;;;10480696;28;20040;-46
2021/04/08 22:47:43;;;;;;;6.07;2.22;;;5.60;99.90;;;;;;10475376;28;20047;-46
2021/04/08 22:53:04;;;;;;;6.63;2.67;;;5.60;99.90;;;;;;10471359;28;20393;-46
2021/04/08 22:58:27;;;;;;;8.80;2.35;;;5.50;99.90;;;;;;10477715;28;20052;-46
2021/04/08 23:03:48;;;;;;;8.75;2.60;;;5.50;99.90;;;;;;10481362;28;20165;-46
2021/04/08 23:09:09;;;;;;;6.55;2.92;;;5.40;99.90;;;;;;10481859;28;20036;-46
2021/04/08 23:14:30;;;;;;;7.05;2.75;;;5.40;99.90;;;;;;10479482;28;20403;-46
2021/04/08 23:19:51;;;;;;;3.17;1.73;;;5.40;99.90;;;;;;10480931;28;20116;-46
2021/04/08 23:25:13;;;;;;;6.63;3.78;;;5.30;99.90;;;;;;10482634;28;20036;-46
2021/04/08 23:30:35;;;;;;;6.50;3.13;;;5.30;99.90;;;;;;10486014;28;20048;-46
2021/04/08 23:35:56;;;;;;;7.85;2.90;;;5.30;99.90;;;;;;10483292;28;20081;-46
2021/04/08 23:41:17;;;;;;;9.73;3.22;;;5.40;99.90;;;;;;10478801;28;20098;-46
2021/04/08 23:46:45;;;;;;;8.13;3.28;;;5.40;99.90;;;;;;10486442;28;20046;-46
2021/04/08 23:52:07;;;;;;;16.23;4.13;;;5.40;99.90;;;;;;10482718;28;20125;-45
2021/04/08 23:57:28;;;;;;;8.35;3.45;;;5.40;99.90;;;;;;10484727;28;20052;-45
